sensor_id;sensor_type;location;lat;lon;timestamp;temperature;humidity
35463;DHT22;21578;47.892;9.970;2024-01-30T11:49:31;9.00;87.00
35463;DHT22;21578;47.892;9.970;2024-01-30T11:54:23;9.20;87.00
35463;DHT22;21578;47.892;9.970;2024-01-30T11:59:10;9.30;85.90
35463;DHT22;21578;47.892;9.970;2024-01-30T12:03:59;9.40;86.10
35463;DHT22;21578;47.892;9.970;2024-01-30T12:08:57;9.40;84.80
35463;DHT22;21578;47.892;9.970;2024-01-30T12:13:45;9.50;86.40
35463;DHT22;21578;47.892;9.970;2024-01-30T12:18:32;9.50;86.40
35463;DHT22;21578;47.892;9.970;2024-01-30T12:23:19;9.60;86.20
35463;DHT22;21578;47.892;9.970;2024-01-30T12:28:12;9.60;86.70
35463;DHT22;21578;47.892;9.970;2024-01-30T12:33:01;9.60;86.50
35463;DHT22;21578;47.892;9.970;2024-01-30T12:37:50;9.60;87.30
35463;DHT22;21578;47.892;9.970;2024-01-30T12:42:37;9.50;87.30
35463;DHT22;21578;47.892;9.970;2024-01-30T12:47:25;9.60;87.40
35463;DHT22;21578;47.892;9.970;2024-01-30T12:52:13;9.50;87.90
35463;DHT22;21578;47.892;9.970;2024-01-30T12:57:00;9.60;87.70
35463;DHT22;21578;47.892;9.970;2024-01-30T13:01:47;9.60;88.20
35463;DHT22;21578;47.892;9.970;2024-01-30T13:06:36;9.70;88.20
35463;DHT22;21578;47.892;9.970;2024-01-30T13:11:23;9.70;88.10
35463;DHT22;21578;47.892;9.970;2024-01-30T13:16:11;9.80;87.70
35463;DHT22;21578;47.892;9.970;2024-01-30T13:20:58;9.80;87.50
35463;DHT22;21578;47.892;9.970;2024-01-30T13:25:46;9.90;88.00
35463;DHT22;21578;47.892;9.970;2024-01-30T13:30:33;9.90;88.10
35463;DHT22;21578;47.892;9.970;2024-01-30T13:35:20;10.00;87.60
35463;DHT22;21578;47.892;9.970;2024-01-30T13:40:09;10.00;88.20
35463;DHT22;21578;47.892;9.970;2024-01-30T13:44:58;9.90;87.60
35463;DHT22;21578;47.892;9.970;2024-01-30T13:49:44;9.90;88.00
35463;DHT22;21578;47.892;9.970;2024-01-30T13:54:32;9.90;87.60
35463;DHT22;21578;47.892;9.970;2024-01-30T13:59:18;9.90;87.80
35463;DHT22;21578;47.892;9.970;2024-01-30T14:04:11;10.00;87.00
35463;DHT22;21578;47.892;9.970;2024-01-30T14:09:00;10.00;87.50
35463;DHT22;21578;47.892;9.970;2024-01-30T14:13:47;10.10;87.50
35463;DHT22;21578;47.892;9.970;2024-01-30T14:18:34;10.30;86.10
35463;DHT22;21578;47.892;9.970;2024-01-30T14:23:23;10.40;85.40
35463;DHT22;21578;47.892;9.970;2024-01-30T14:28:10;10.40;86.40
35463;DHT22;21578;47.892;9.970;2024-01-30T14:32:57;10.40;86.50
35463;DHT22;21578;47.892;9.970;2024-01-30T14:37:44;10.30;86.90
35463;DHT22;21578;47.892;9.970;2024-01-30T14:42:33;10.10;87.30
35463;DHT22;21578;47.892;9.970;2024-01-30T14:47:21;10.00;87.20
35463;DHT22;21578;47.892;9.970;2024-01-30T14:52:08;9.90;88.50
35463;DHT22;21578;47.892;9.970;2024-01-30T14:56:56;9.70;88.80
35463;DHT22;21578;47.892;9.970;2024-01-30T15:01:46;9.60;88.60
35463;DHT22;21578;47.892;9.970;2024-01-30T15:06:34;9.50;89.10
35463;DHT22;21578;47.892;9.970;2024-01-30T15:11:21;9.40;89.00
35463;DHT22;21578;47.892;9.970;2024-01-30T15:16:08;9.20;89.40
35463;DHT22;21578;47.892;9.970;2024-01-30T15:20:56;9.00;90.50
35463;DHT22;21578;47.892;9.970;2024-01-30T15:25:43;8.80;92.20
35463;DHT22;21578;47.892;9.970;2024-01-30T15:30:30;8.60;92.40
35463;DHT22;21578;47.892;9.970;2024-01-30T15:35:17;8.40;93.20
35463;DHT22;21578;47.892;9.970;2024-01-30T15:40:07;8.30;93.50
35463;DHT22;21578;47.892;9.970;2024-01-30T15:44:54;8.20;93.70
35463;DHT22;21578;47.892;9.970;2024-01-30T15:49:41;8.00;94.20
35463;DHT22;21578;47.892;9.970;2024-01-30T15:54:28;7.90;94.30
35463;DHT22;21578;47.892;9.970;2024-01-30T15:59:16;7.80;94.40
35463;DHT22;21578;47.892;9.970;2024-01-30T16:04:03;7.60;95.20
35463;DHT22;21578;47.892;9.970;2024-01-30T16:08:50;7.40;95.50
35463;DHT22;21578;47.892;9.970;2024-01-30T16:13:37;7.30;95.70
35463;DHT22;21578;47.892;9.970;2024-01-30T16:18:26;7.20;95.40
35463;DHT22;21578;47.892;9.970;2024-01-30T16:23:16;7.10;96.10
35463;DHT22;21578;47.892;9.970;2024-01-30T16:28:04;7.00;96.60
35463;DHT22;21578;47.892;9.970;2024-01-30T16:32:51;6.90;96.20
35463;DHT22;21578;47.892;9.970;2024-01-30T16:37:39;6.80;96.20
35463;DHT22;21578;47.892;9.970;2024-01-30T16:42:26;6.70;96.10
35463;DHT22;21578;47.892;9.970;2024-01-30T16:47:13;6.80;95.70
35463;DHT22;21578;47.892;9.970;2024-01-30T16:52:00;6.60;96.40
35463;DHT22;21578;47.892;9.970;2024-01-30T16:56:49;6.50;96.60
35463;DHT22;21578;47.892;9.970;2024-01-30T17:01:36;6.50;95.90
35463;DHT22;21578;47.892;9.970;2024-01-30T17:06:23;6.50;96.60
35463;DHT22;21578;47.892;9.970;2024-01-30T17:11:10;6.40;96.60
35463;DHT22;21578;47.892;9.970;2024-01-30T17:15:58;6.30;96.60
35463;DHT22;21578;47.892;9.970;2024-01-30T17:20:45;6.30;96.60
35463;DHT22;21578;47.892;9.970;2024-01-30T17:25:33;6.30;96.60
35463;DHT22;21578;47.892;9.970;2024-01-30T17:30:23;6.20;96.60
35463;DHT22;21578;47.892;9.970;2024-01-30T17:35:12;6.20;96.60
35463;DHT22;21578;47.892;9.970;2024-01-30T17:39:59;6.20;96.60
35463;DHT22;21578;47.892;9.970;2024-01-30T17:44:46;6.20;96.40
35463;DHT22;21578;47.892;9.970;2024-01-30T17:49:34;6.30;95.80
35463;DHT22;21578;47.892;9.970;2024-01-30T17:54:22;6.30;96.10
35463;DHT22;21578;47.892;9.970;2024-01-30T17:59:09;6.20;96.60
35463;DHT22;21578;47.892;9.970;2024-01-30T18:03:57;6.00;96.60
35463;DHT22;21578;47.892;9.970;2024-01-30T18:08:44;6.00;96.60
35463;DHT22;21578;47.892;9.970;2024-01-30T18:13:32;5.90;96.60
35463;DHT22;21578;47.892;9.970;2024-01-30T18:18:20;5.90;96.60
35463;DHT22;21578;47.892;9.970;2024-01-30T18:23:09;5.90;96.60
35463;DHT22;21578;47.892;9.970;2024-01-30T18:27:56;6.00;96.20
35463;DHT22;21578;47.892;9.970;2024-01-30T18:32:44;6.00;95.50
35463;DHT22;21578;47.892;9.970;2024-01-30T18:37:34;6.10;96.00
35463;DHT22;21578;47.892;9.970;2024-01-30T18:42:21;6.10;95.60
35463;DHT22;21578;47.892;9.970;2024-01-30T18:47:08;6.10;96.10
35463;DHT22;21578;47.892;9.970;2024-01-30T19:03:06;6.00;95.50
35463;DHT22;21578;47.892;9.970;2024-01-30T19:07:54;6.00;95.50
35463;DHT22;21578;47.892;9.970;2024-01-30T19:12:40;6.00;95.90
35463;DHT22;21578;47.892;9.970;2024-01-30T19:17:53;6.00;95.70
